createdAt,value
2019-05-13T00:00:57.313Z,1.9
2019-05-13T00:01:57.440Z,2.3
2019-05-13T00:02:57.576Z,2.1
2019-05-13T00:03:57.687Z,2.4
2019-05-13T00:04:57.825Z,2.4
2019-05-13T00:05:57.990Z,2.5
2019-05-13T00:06:58.064Z,2
2019-05-13T00:07:58.165Z,2
2019-05-13T00:08:58.270Z,2.3
2019-05-13T00:09:58.369Z,1.9
2019-05-13T00:10:58.519Z,2.1
2019-05-13T00:11:58.623Z,2.4
2019-05-13T00:12:58.727Z,2.2
2019-05-13T00:13:58.821Z,2.1
2019-05-13T00:14:58.917Z,2.1
2019-05-13T00:16:00.093Z,2.2
2019-05-13T00:17:00.027Z,2.3
2019-05-13T00:18:00.140Z,2.2
2019-05-13T00:20:00.350Z,2.1
2019-05-13T00:20:59.507Z,2
2019-05-13T00:22:00.645Z,2.5
2019-05-13T00:23:00.743Z,2.2
2019-05-13T00:24:00.850Z,2.1
2019-05-13T00:25:00.937Z,2.2
2019-05-13T00:26:03.561Z,2.3
2019-05-13T00:27:00.087Z,2.5
2019-05-13T00:28:01.195Z,2.4
2019-05-13T00:29:00.313Z,2.4
2019-05-13T00:30:00.406Z,2.4
2019-05-13T00:31:03.393Z,2.1
2019-05-13T00:32:00.733Z,2.5
2019-05-13T00:33:03.686Z,2.5
2019-05-13T00:34:03.441Z,2.4
2019-05-13T00:35:01.069Z,2.5
2019-05-13T00:36:01.182Z,2.7
2019-05-13T00:37:08.460Z,2.5
2019-05-13T00:38:03.732Z,2.4
2019-05-13T00:39:03.607Z,2.9
2019-05-13T00:40:03.902Z,2.5
2019-05-13T00:41:03.632Z,2.5
2019-05-13T00:42:03.952Z,2.5
2019-05-13T00:43:03.734Z,2.5
2019-05-13T00:44:03.794Z,2.4
2019-05-13T00:45:03.983Z,2.9
2019-05-13T00:46:03.835Z,2.5
2019-05-13T00:47:04.369Z,2.7
2019-05-13T00:48:04.451Z,2.5
2019-05-13T00:49:04.551Z,2.6
2019-05-13T00:50:03.618Z,2.5
2019-05-13T00:51:03.690Z,2.5
2019-05-13T00:52:03.819Z,2.6
2019-05-13T00:53:04.244Z,2.8
2019-05-13T00:54:04.288Z,2.5
2019-05-13T00:55:04.200Z,2.7
2019-05-13T00:56:03.999Z,2.5
2019-05-13T00:57:04.101Z,2.5
2019-05-13T00:58:04.219Z,2.8
2019-05-13T00:59:03.818Z,2.8
2019-05-13T01:00:03.742Z,2.7
2019-05-13T01:01:03.871Z,2.6
2019-05-13T01:02:03.952Z,2.3
2019-05-13T01:03:04.326Z,2.6
2019-05-13T01:04:04.166Z,2.5
2019-05-13T01:05:04.427Z,2.5
2019-05-13T01:06:04.453Z,2.6
2019-05-13T01:07:04.741Z,2.9
2019-05-13T01:08:04.664Z,2.6
2019-05-13T01:09:04.777Z,2.8
2019-05-13T01:10:04.880Z,2.6
2019-05-13T01:11:04.974Z,2.6
2019-05-13T01:12:05.099Z,2.7
2019-05-13T01:13:05.221Z,2.4
2019-05-13T01:14:05.313Z,2.7
2019-05-13T01:15:05.413Z,2.5
2019-05-13T01:16:05.523Z,2.5
2019-05-13T01:17:05.649Z,2.6
2019-05-13T01:18:05.782Z,2.7
2019-05-13T01:19:05.905Z,2.7
2019-05-13T01:20:06.001Z,2.6
2019-05-13T01:21:06.118Z,2.6
2019-05-13T01:22:06.230Z,2.7
2019-05-13T01:23:06.471Z,2.7
2019-05-13T01:24:06.417Z,2.7
2019-05-13T01:25:06.515Z,2.9
2019-05-13T01:26:06.610Z,2.7
2019-05-13T01:27:06.731Z,2.5
2019-05-13T01:28:06.852Z,2.8
2019-05-13T01:29:06.963Z,2.5
2019-05-13T01:30:07.077Z,2.7
2019-05-13T01:31:07.202Z,2.9
2019-05-13T01:32:08.308Z,2.5
2019-05-13T01:33:07.547Z,2.7
2019-05-13T01:34:07.499Z,2.9
2019-05-13T01:35:07.613Z,2.9
2019-05-13T01:36:07.714Z,2.8
2019-05-13T01:37:07.868Z,3.2
2019-05-13T01:38:08.043Z,3
2019-05-13T01:39:07.991Z,2.9
2019-05-13T01:40:08.130Z,2.5
2019-05-13T01:41:08.242Z,3
2019-05-13T01:42:08.345Z,2.5
2019-05-13T01:43:08.528Z,2.8
2019-05-13T01:44:08.496Z,2.9
2019-05-13T01:45:08.630Z,2.8
2019-05-13T01:46:08.717Z,3.3
2019-05-13T01:47:08.814Z,2.6
2019-05-13T01:48:08.925Z,2.6
2019-05-13T01:49:09.108Z,2.9
2019-05-13T01:50:09.027Z,2.8
2019-05-13T01:51:09.135Z,3
2019-05-13T01:52:10.257Z,2.9
2019-05-13T01:53:10.394Z,3
2019-05-13T01:54:10.538Z,3.2
2019-05-13T01:55:10.636Z,2.7
2019-05-13T01:56:10.735Z,3.1
2019-05-13T01:57:10.841Z,3.5
2019-05-13T01:58:10.956Z,3
2019-05-13T02:00:13.746Z,3.1
2019-05-13T02:01:10.296Z,3.8
2019-05-13T02:02:13.412Z,2.9
2019-05-13T02:03:10.474Z,3
2019-05-13T02:04:13.905Z,2.9
2019-05-13T02:05:10.699Z,3.3
2019-05-13T02:06:10.813Z,3.1
2019-05-13T02:07:10.914Z,3.1
2019-05-13T02:08:14.055Z,3.5
2019-05-13T02:09:11.142Z,2.9
2019-05-13T02:10:11.248Z,3.1
2019-05-13T02:11:13.258Z,3.3
2019-05-13T02:12:13.312Z,3.1
2019-05-13T02:13:11.552Z,3.3
2019-05-13T02:14:13.234Z,3
2019-05-13T02:15:11.679Z,2.9
2019-05-13T02:16:14.335Z,3.2
2019-05-13T02:17:14.361Z,3
2019-05-13T02:18:13.429Z,3.1
2019-05-13T02:19:14.094Z,2.9
2019-05-13T02:20:14.369Z,3
2019-05-13T02:21:13.889Z,3.1
2019-05-13T02:22:14.296Z,3.2
2019-05-13T02:23:14.334Z,3
2019-05-13T02:24:14.414Z,3.1
2019-05-13T02:25:13.747Z,3.1
2019-05-13T02:26:13.547Z,3.3
2019-05-13T02:27:14.169Z,3.3
2019-05-13T02:28:13.828Z,3.4
2019-05-13T02:29:14.291Z,3.6
2019-05-13T02:30:15.923Z,4
2019-05-13T02:31:18.455Z,3.1
2019-05-13T02:32:14.250Z,3.2
2019-05-13T02:33:13.553Z,3.4
2019-05-13T02:34:13.782Z,3.4
2019-05-13T02:35:14.245Z,3.3
2019-05-13T02:36:13.858Z,3.5
2019-05-13T02:37:13.796Z,3.8
2019-05-13T02:38:22.488Z,3.4
2019-05-13T02:39:13.935Z,3.6
2019-05-13T02:40:14.051Z,3.4
2019-05-13T02:41:14.147Z,3.5
2019-05-13T02:42:14.244Z,3.6
2019-05-13T02:43:14.341Z,3.4
2019-05-13T02:44:14.445Z,3.2
2019-05-13T02:45:14.585Z,3.3
2019-05-13T02:46:14.682Z,3.3
2019-05-13T02:47:15.784Z,3.5
2019-05-13T02:48:14.890Z,3.2
2019-05-13T02:49:14.976Z,3.2
2019-05-13T02:50:15.095Z,3.5
2019-05-13T02:51:15.211Z,3.8
2019-05-13T02:52:15.323Z,3.3
2019-05-13T02:53:15.417Z,3.3
2019-05-13T02:54:15.508Z,3.3
2019-05-13T02:55:15.664Z,3.3
2019-05-13T02:56:15.597Z,3.5
2019-05-13T02:57:15.692Z,3.7
2019-05-13T02:58:15.789Z,3.1
2019-05-13T02:59:15.894Z,3.2
2019-05-13T03:00:16.032Z,3.2
2019-05-13T03:01:16.153Z,3
2019-05-13T03:02:16.273Z,3.2
2019-05-13T03:03:16.376Z,3.1
2019-05-13T03:04:16.590Z,3.3
2019-05-13T03:05:16.603Z,3
2019-05-13T03:06:16.537Z,3.1
2019-05-13T03:07:16.658Z,3.2
2019-05-13T03:08:33.923Z,3.6
2019-05-13T03:09:16.847Z,3.1
2019-05-13T03:10:17.004Z,2.8
2019-05-13T03:11:17.166Z,3.3
2019-05-13T03:12:18.240Z,3.5
2019-05-13T03:13:18.339Z,3.2
2019-05-13T03:14:18.451Z,3.6
2019-05-13T03:15:18.540Z,3.2
2019-05-13T03:16:18.674Z,3.1
2019-05-13T03:17:22.016Z,3.3
2019-05-13T03:18:22.249Z,3.5
2019-05-13T03:20:22.344Z,3.2
2019-05-13T03:21:22.870Z,3.2
2019-05-13T03:22:21.993Z,3.5
2019-05-13T03:23:22.280Z,3.5
2019-05-13T03:24:22.298Z,3.4
2019-05-13T03:25:22.057Z,3.4
2019-05-13T03:26:19.454Z,3.9
2019-05-13T03:27:21.478Z,3.3
2019-05-13T03:28:22.268Z,3.2
2019-05-13T03:30:24.225Z,4
2019-05-13T03:31:19.603Z,3.6
2019-05-13T03:32:25.402Z,3.6
2019-05-13T03:33:25.367Z,3.7
2019-05-13T03:34:25.340Z,3.4
2019-05-13T03:35:25.649Z,3.7
2019-05-13T03:36:24.934Z,3.6
2019-05-13T03:40:18.854Z,4
2019-05-13T03:41:22.786Z,3.9
2019-05-13T03:42:22.466Z,4
2019-05-13T03:43:19.044Z,3.6
2019-05-13T03:44:23.215Z,3.7
2019-05-13T03:45:21.930Z,3.7
2019-05-13T03:46:21.940Z,3.5
2019-05-13T03:47:23.008Z,3.7
2019-05-13T03:48:19.298Z,4.1
2019-05-13T03:49:22.945Z,4
2019-05-13T03:50:22.555Z,3.9
2019-05-13T03:51:22.124Z,4
2019-05-13T03:52:22.240Z,4
2019-05-13T03:53:23.363Z,3.6
2019-05-13T03:54:22.636Z,4
2019-05-13T03:56:23.470Z,3.8
2019-05-13T03:58:23.737Z,3.9
2019-05-13T04:00:23.069Z,4
2019-05-13T04:01:22.307Z,4
2019-05-13T04:02:22.546Z,4.1
2019-05-13T04:03:22.703Z,3.9
2019-05-13T04:04:23.282Z,4
2019-05-13T04:05:22.823Z,4.4
2019-05-13T04:06:22.317Z,4
2019-05-13T04:07:23.711Z,4.1
2019-05-13T04:08:22.673Z,4.1
2019-05-13T04:09:27.200Z,4
2019-05-13T04:10:22.793Z,4
2019-05-13T04:11:22.555Z,4.4
2019-05-13T04:12:22.685Z,4.4
2019-05-13T04:13:23.195Z,4.1
2019-05-13T04:14:22.822Z,4.3
2019-05-13T04:15:23.372Z,4
2019-05-13T04:16:23.619Z,4.2
2019-05-13T04:17:23.850Z,4.1
2019-05-13T04:18:23.341Z,3.9
2019-05-13T04:19:23.124Z,4.4
2019-05-13T04:20:22.935Z,4.3
2019-05-13T04:21:22.735Z,4.4
2019-05-13T04:22:22.977Z,3.9
2019-05-13T04:23:23.197Z,4.4
2019-05-13T04:24:22.860Z,4.4
2019-05-13T04:25:23.078Z,4.5
2019-05-13T04:26:23.495Z,4.3
2019-05-13T04:27:23.261Z,4.6
2019-05-13T04:28:22.160Z,4.5
2019-05-13T04:29:23.321Z,5
2019-05-13T04:30:22.480Z,4.4
2019-05-13T04:31:22.727Z,4.9
2019-05-13T04:32:22.897Z,4.3
2019-05-13T04:33:23.240Z,4.9
2019-05-13T04:34:22.885Z,4.3
2019-05-13T04:35:23.169Z,5
2019-05-13T04:36:23.374Z,4.8
2019-05-13T04:37:22.376Z,4.9
2019-05-13T04:38:22.887Z,5
2019-05-13T04:39:39.413Z,4.6
2019-05-13T04:40:23.675Z,4.9
2019-05-13T04:41:23.067Z,4.7
2019-05-13T04:42:23.216Z,4.8
2019-05-13T04:43:23.439Z,5
2019-05-13T04:44:23.873Z,5.4
2019-05-13T04:45:24.253Z,4.8
2019-05-13T04:46:23.102Z,5.1
2019-05-13T04:47:23.098Z,5.2
2019-05-13T04:48:23.186Z,5.1
2019-05-13T04:49:23.568Z,5.2
2019-05-13T04:50:23.120Z,5.1
2019-05-13T04:51:23.187Z,5.6
2019-05-13T04:52:23.234Z,6
2019-05-13T04:53:23.507Z,6
2019-05-13T04:54:23.546Z,5.5
2019-05-13T04:55:23.558Z,5.7
2019-05-13T04:56:23.538Z,5
2019-05-13T04:57:23.676Z,5.9
2019-05-13T04:58:23.865Z,5.9
2019-05-13T04:59:23.877Z,5.5
2019-05-13T05:00:23.855Z,5.4
2019-05-13T05:01:24.073Z,5.7
2019-05-13T05:02:36.464Z,5.4
2019-05-13T05:03:32.852Z,5.5
2019-05-13T05:04:30.325Z,5.6
2019-05-13T05:05:25.449Z,6
2019-05-13T05:06:24.601Z,5.9
2019-05-13T05:07:24.587Z,5.7
2019-05-13T05:08:24.742Z,5.3
2019-05-13T05:09:24.809Z,5.5
2019-05-13T05:10:32.952Z,5.8
2019-05-13T05:11:25.911Z,5.8
2019-05-13T05:12:25.069Z,5.8
2019-05-13T05:13:25.056Z,5.2
2019-05-13T05:14:25.242Z,5.5
2019-05-13T05:15:25.329Z,5.7
2019-05-13T05:16:25.359Z,6.1
2019-05-13T05:17:25.404Z,5.8
2019-05-13T05:18:25.419Z,5.5
2019-05-13T05:19:25.458Z,5.3
2019-05-13T05:20:25.451Z,5.4
2019-05-13T05:21:25.482Z,5.5
2019-05-13T05:22:25.469Z,5.5
2019-05-13T05:23:25.452Z,5.2
2019-05-13T05:24:25.631Z,5.4
2019-05-13T05:25:25.682Z,5.6
2019-05-13T05:26:26.680Z,5.4
2019-05-13T05:27:26.649Z,5.6
2019-05-13T05:28:25.807Z,5.1
2019-05-13T05:29:25.803Z,5.3
2019-05-13T05:30:25.944Z,5.6
2019-05-13T05:31:25.936Z,5.1
2019-05-13T05:32:26.185Z,5.6
2019-05-13T05:33:26.171Z,5.1
2019-05-13T05:34:26.341Z,5
2019-05-13T05:35:26.369Z,5.4
2019-05-13T05:36:26.359Z,5.1
2019-05-13T05:37:26.356Z,5.1
2019-05-13T05:38:26.495Z,4.7
2019-05-13T05:39:26.606Z,4.6
2019-05-13T05:40:31.155Z,5
2019-05-13T05:41:28.014Z,4.8
2019-05-13T05:42:27.002Z,5.1
2019-05-13T05:43:26.990Z,5
2019-05-13T05:44:27.002Z,5
2019-05-13T05:45:27.179Z,4.7
2019-05-13T05:46:27.329Z,4.4
2019-05-13T05:47:28.429Z,4.5
2019-05-13T05:48:28.539Z,4.3
2019-05-13T05:49:27.680Z,4.8
2019-05-13T05:50:28.834Z,4.4
2019-05-13T05:51:30.873Z,4.5
2019-05-13T05:52:27.957Z,4.6
2019-05-13T05:53:28.928Z,4.9
2019-05-13T05:54:28.098Z,4
2019-05-13T05:55:29.127Z,4.2
2019-05-13T05:56:28.098Z,4.3
2019-05-13T05:57:31.234Z,4.3
2019-05-13T05:58:28.392Z,4
2019-05-13T05:59:31.737Z,4.2
2019-05-13T06:00:28.823Z,4
2019-05-13T06:01:32.431Z,4.7
2019-05-13T06:02:32.157Z,3.8
2019-05-13T06:03:28.889Z,4.3
2019-05-13T06:04:32.439Z,3.8
2019-05-13T06:05:29.069Z,4.1
2019-05-13T06:06:29.125Z,3.8
2019-05-13T06:07:32.167Z,3.8
2019-05-13T06:08:32.148Z,3.8
2019-05-13T06:09:32.195Z,3.9
2019-05-13T06:10:43.968Z,4.3
2019-05-13T06:11:31.179Z,4
2019-05-13T06:12:31.460Z,3.6
2019-05-13T06:13:31.561Z,4.1
2019-05-13T06:14:32.265Z,3.5
2019-05-13T06:15:31.441Z,3.7
2019-05-13T06:16:31.950Z,3.6
2019-05-13T06:17:31.898Z,3.7
2019-05-13T06:18:31.968Z,3.7
2019-05-13T06:19:31.755Z,3.3
2019-05-13T06:20:31.641Z,3.1
2019-05-13T06:21:32.071Z,3.3
2019-05-13T06:22:32.034Z,3.6
2019-05-13T06:23:31.226Z,3.3
2019-05-13T06:24:31.208Z,3.8
2019-05-13T06:25:33.582Z,3.6
2019-05-13T06:26:31.525Z,3
2019-05-13T06:27:31.712Z,3.7
2019-05-13T06:28:32.205Z,3.3
2019-05-13T06:29:31.598Z,3.2
2019-05-13T06:30:32.517Z,3.3
2019-05-13T06:31:32.232Z,3.1
2019-05-13T06:32:31.385Z,3.3
2019-05-13T06:33:31.615Z,3.7
2019-05-13T06:34:32.575Z,3.3
2019-05-13T06:35:32.263Z,3.6
2019-05-13T06:36:31.716Z,3.3
2019-05-13T06:37:32.143Z,3.2
2019-05-13T06:38:31.688Z,3
2019-05-13T06:39:31.806Z,3.2
2019-05-13T06:40:31.893Z,3
2019-05-13T06:41:32.292Z,2.7
2019-05-13T06:42:32.417Z,2.9
2019-05-13T06:43:31.571Z,3
2019-05-13T06:44:31.830Z,2.5
2019-05-13T06:45:31.675Z,2.6
2019-05-13T06:46:32.279Z,2.7
2019-05-13T06:47:32.178Z,2.7
2019-05-13T06:48:32.454Z,2.5
2019-05-13T06:49:32.405Z,2.6
2019-05-13T06:50:32.297Z,2.7
2019-05-13T06:51:31.599Z,2.5
2019-05-13T06:52:32.015Z,2.7
2019-05-13T06:53:32.228Z,2.6
2019-05-13T06:54:32.859Z,3
2019-05-13T06:55:31.747Z,2.6
2019-05-13T06:56:32.322Z,3
2019-05-13T06:57:32.285Z,2.8
2019-05-13T06:58:32.457Z,2.8
2019-05-13T06:59:31.909Z,2.6
2019-05-13T07:00:34.535Z,2.6
2019-05-13T07:01:32.866Z,2.6
2019-05-13T07:02:32.171Z,2.4
2019-05-13T07:03:32.315Z,2.5
2019-05-13T07:04:32.800Z,2.8
2019-05-13T07:05:32.063Z,2.7
2019-05-13T07:06:32.517Z,2.6
2019-05-13T07:07:32.395Z,2.6
2019-05-13T07:08:32.406Z,2.6
2019-05-13T07:09:32.672Z,2.5
2019-05-13T07:10:32.404Z,2.8
2019-05-13T07:11:32.595Z,2.5
2019-05-13T07:12:32.577Z,2.8
2019-05-13T07:13:32.603Z,2.7
2019-05-13T07:14:32.743Z,2.7
2019-05-13T07:15:32.752Z,2.7
2019-05-13T07:16:32.756Z,2.6
2019-05-13T07:17:32.768Z,2.5
2019-05-13T07:18:32.805Z,2.7
2019-05-13T07:19:32.805Z,2.7
2019-05-13T07:20:32.907Z,2.7
2019-05-13T07:21:32.916Z,2.8
2019-05-13T07:22:32.902Z,2.5
2019-05-13T07:23:33.023Z,3
2019-05-13T07:24:33.017Z,2.5
2019-05-13T07:25:33.006Z,2.6
2019-05-13T07:26:33.010Z,2.9
2019-05-13T07:27:32.997Z,3.6
2019-05-13T07:28:33.034Z,2.9
2019-05-13T07:29:33.033Z,3.4
2019-05-13T07:30:33.034Z,3.8
2019-05-13T07:31:33.028Z,3.2
2019-05-13T07:32:33.008Z,2.7
2019-05-13T07:33:33.041Z,2.9
2019-05-13T07:34:33.965Z,2.8
2019-05-13T07:35:37.742Z,2.6
2019-05-13T07:36:34.320Z,2.4
2019-05-13T07:37:34.456Z,2.8
2019-05-13T07:38:33.661Z,2.4
2019-05-13T07:39:33.655Z,2.1
2019-05-13T07:40:33.810Z,2.5
2019-05-13T07:41:39.135Z,2.4
2019-05-13T07:42:34.925Z,2.6
2019-05-13T07:43:33.944Z,2.8
2019-05-13T07:44:33.932Z,2.5
2019-05-13T07:45:33.964Z,2.2
2019-05-13T07:46:33.932Z,1.8
2019-05-13T07:47:33.929Z,2.4
2019-05-13T07:48:33.964Z,2.3
2019-05-13T07:49:33.959Z,2.1
2019-05-13T07:50:33.941Z,2.2
2019-05-13T07:51:35.093Z,2.3
2019-05-13T07:52:34.117Z,2.7
2019-05-13T07:53:34.149Z,2.3
2019-05-13T07:54:34.189Z,2.2
2019-05-13T07:55:34.190Z,2.4
2019-05-13T07:56:34.199Z,2.2
2019-05-13T07:57:34.188Z,2.3
2019-05-13T07:58:37.479Z,2.3
2019-05-13T07:59:35.363Z,2.1
2019-05-13T08:00:34.551Z,2.2
2019-05-13T08:01:34.554Z,2.1
2019-05-13T08:02:34.546Z,2.4
2019-05-13T08:03:34.582Z,2.1
2019-05-13T08:04:34.615Z,2
2019-05-13T08:05:35.647Z,2.1
2019-05-13T08:06:34.637Z,1.9
2019-05-13T08:07:34.837Z,2.2
2019-05-13T08:08:34.862Z,2.3
2019-05-13T08:09:34.883Z,2.2
2019-05-13T08:10:34.873Z,2.3
2019-05-13T08:11:36.961Z,2.2
2019-05-13T08:12:35.871Z,2
2019-05-13T08:13:34.859Z,2
2019-05-13T08:14:34.939Z,2.4
2019-05-13T08:15:34.913Z,2.5
2019-05-13T08:16:34.912Z,2.2
2019-05-13T08:17:34.904Z,2.2
2019-05-13T08:18:36.050Z,2.1
2019-05-13T08:19:35.226Z,2.5
2019-05-13T08:20:35.249Z,2.7
2019-05-13T08:21:35.257Z,2.2
2019-05-13T08:22:35.244Z,2.6
2019-05-13T08:23:35.387Z,2.4
2019-05-13T08:24:35.579Z,2.3
2019-05-13T08:25:35.576Z,2
2019-05-13T08:26:37.921Z,2.5
2019-05-13T08:27:35.686Z,2.5
2019-05-13T08:28:35.872Z,2.4
2019-05-13T08:29:36.913Z,2.2
2019-05-13T08:30:35.959Z,2.4
2019-05-13T08:31:35.943Z,2.1
2019-05-13T08:32:35.922Z,1.9
2019-05-13T08:33:36.121Z,2.1
2019-05-13T08:34:36.138Z,2
2019-05-13T08:35:36.181Z,2
2019-05-13T08:36:39.212Z,2.3
2019-05-13T08:37:37.346Z,2
2019-05-13T08:38:37.445Z,2.2
2019-05-13T08:39:38.484Z,2.2
2019-05-13T08:40:37.737Z,2.1
2019-05-13T08:41:37.716Z,2
2019-05-13T08:42:37.927Z,2.3
2019-05-13T08:43:37.947Z,2.3
2019-05-13T08:44:37.963Z,2.3
2019-05-13T08:45:37.981Z,2.3
2019-05-13T08:46:37.965Z,2.1
2019-05-13T08:47:38.001Z,2.6
2019-05-13T08:48:37.985Z,2.2
2019-05-13T08:49:38.130Z,2.1
2019-05-13T08:50:38.326Z,2.4
2019-05-13T08:51:38.314Z,2.1
2019-05-13T08:52:38.305Z,2
2019-05-13T08:53:38.449Z,1.9
2019-05-13T08:54:38.589Z,2
2019-05-13T08:55:38.781Z,2.5
2019-05-13T08:56:38.775Z,2.1
2019-05-13T08:57:38.770Z,1.8
2019-05-13T08:58:38.747Z,1.4
2019-05-13T08:59:37.905Z,1.8
2019-05-13T09:00:40.981Z,1.7
2019-05-13T09:01:38.079Z,1.7
2019-05-13T09:02:39.088Z,1.6
2019-05-13T09:03:38.063Z,1.3
2019-05-13T09:04:39.230Z,1.7
2019-05-13T09:05:41.323Z,1.7
2019-05-13T09:06:38.268Z,1.6
2019-05-13T09:07:41.239Z,1.8
2019-05-13T09:08:38.416Z,1.8
2019-05-13T09:09:41.673Z,1.6
2019-05-13T09:10:38.611Z,1.7
2019-05-13T09:11:38.636Z,1.7
2019-05-13T09:12:40.910Z,1.2
2019-05-13T09:13:42.012Z,1.2
2019-05-13T09:14:41.363Z,1.4
2019-05-13T09:15:39.028Z,1.5
2019-05-13T09:16:41.835Z,1.2
2019-05-13T09:17:42.197Z,1.4
2019-05-13T09:18:39.257Z,1.5
2019-05-13T09:19:41.392Z,1.4
2019-05-13T09:20:41.569Z,1.4
2019-05-13T09:21:42.018Z,1.4
2019-05-13T09:22:41.210Z,1.4
2019-05-13T09:23:41.326Z,1.7
2019-05-13T09:24:42.164Z,1.5
2019-05-13T09:25:41.511Z,3.2
2019-05-13T09:26:42.087Z,2.8
2019-05-13T09:27:42.200Z,2.4
2019-05-13T09:28:41.672Z,1.8
2019-05-13T09:29:42.271Z,1.5
2019-05-13T09:30:42.328Z,1.4
2019-05-13T09:31:41.520Z,1.6
2019-05-13T09:32:42.492Z,1.3
2019-05-13T09:33:41.768Z,1.1
2019-05-13T09:34:42.152Z,1.3
2019-05-13T09:35:42.215Z,1.6
2019-05-13T09:36:41.687Z,1.6
2019-05-13T09:37:42.285Z,1.8
2019-05-13T09:38:41.825Z,1.5
2019-05-13T09:39:41.505Z,1.2
2019-05-13T09:40:42.237Z,1.3
2019-05-13T09:41:44.240Z,1.2
2019-05-13T09:42:48.767Z,1.5
2019-05-13T09:43:42.140Z,1.2
2019-05-13T09:44:41.902Z,1.5
2019-05-13T09:45:41.921Z,1.6
2019-05-13T09:46:42.449Z,1.5
2019-05-13T09:47:41.834Z,1.3
2019-05-13T09:48:42.409Z,1.6
2019-05-13T09:49:42.097Z,1.5
2019-05-13T09:50:42.488Z,1.3
2019-05-13T09:51:41.897Z,1.7
2019-05-13T09:52:42.797Z,1.5
2019-05-13T09:53:41.867Z,1.7
2019-05-13T09:54:42.680Z,1.7
2019-05-13T09:55:42.167Z,1.5
2019-05-13T09:56:43.374Z,1.6
2019-05-13T09:57:42.412Z,1.5
2019-05-13T09:58:42.412Z,1.4
2019-05-13T09:59:42.584Z,1.4
2019-05-13T10:00:42.585Z,1.5
2019-05-13T10:01:42.719Z,1.7
2019-05-13T10:02:42.801Z,1.4
2019-05-13T10:04:44.076Z,1.3
2019-05-13T10:05:42.852Z,1.4
2019-05-13T10:06:42.871Z,1.5
2019-05-13T10:07:43.046Z,1.3
2019-05-13T10:08:43.055Z,1.2
2019-05-13T10:09:43.651Z,1.4
2019-05-13T10:10:43.195Z,1.2
2019-05-13T10:11:43.206Z,1.4
2019-05-13T10:12:43.217Z,1.3
2019-05-13T10:13:43.217Z,1.4
2019-05-13T10:14:43.208Z,1.5
2019-05-13T10:15:43.349Z,1.3
2019-05-13T10:16:44.507Z,1.2
2019-05-13T10:17:43.521Z,1.2
2019-05-13T10:18:43.502Z,1.2
2019-05-13T10:19:43.691Z,1.2
2019-05-13T10:20:43.702Z,1.8
2019-05-13T10:21:43.678Z,1.2
2019-05-13T10:22:43.878Z,1.6
2019-05-13T10:23:43.877Z,1.6
2019-05-13T10:24:43.863Z,1.3
2019-05-13T10:25:43.890Z,1.5
2019-05-13T10:26:43.868Z,1.2
2019-05-13T10:27:44.107Z,1.2
2019-05-13T10:28:44.115Z,1.3
2019-05-13T10:29:44.096Z,1.1
2019-05-13T10:30:44.242Z,1.2
2019-05-13T10:31:44.406Z,1.3
2019-05-13T10:32:44.584Z,1.4
2019-05-13T10:33:44.618Z,1.1
2019-05-13T10:34:44.609Z,1.3
2019-05-13T10:35:44.630Z,1.5
2019-05-13T10:36:44.633Z,1.4
2019-05-13T10:37:44.636Z,1.4
2019-05-13T10:38:44.813Z,1.3
2019-05-13T10:39:44.830Z,1.5
2019-05-13T10:40:44.843Z,1.4
2019-05-13T10:41:44.832Z,1.3
2019-05-13T10:42:44.844Z,1.6
2019-05-13T10:43:44.973Z,1.4
2019-05-13T10:44:44.855Z,1.4
2019-05-13T10:45:44.856Z,1.2
2019-05-13T10:46:44.845Z,1.5
2019-05-13T10:47:44.998Z,1.3
2019-05-13T10:48:45.084Z,1.5
2019-05-13T10:49:45.179Z,1.3
2019-05-13T10:50:45.198Z,1.2
2019-05-13T10:51:45.187Z,1.4
2019-05-13T10:52:45.351Z,1.5
2019-05-13T10:53:45.384Z,1.4
2019-05-13T10:54:45.390Z,1.4
2019-05-13T10:55:45.432Z,1.5
2019-05-13T10:56:45.425Z,1.2
2019-05-13T10:57:45.599Z,1.5
2019-05-13T10:58:45.622Z,1.4
2019-05-13T10:59:45.641Z,1.6
2019-05-13T11:00:45.630Z,1.5
2019-05-13T11:01:45.778Z,1.5
2019-05-13T11:02:45.951Z,1.9
2019-05-13T11:03:45.967Z,1.7
2019-05-13T11:04:45.973Z,1.6
2019-05-13T11:05:46.012Z,1.5
2019-05-13T11:06:46.001Z,1.9
2019-05-13T11:07:46.009Z,1.6
2019-05-13T11:08:46.038Z,1.6
2019-05-13T11:09:46.059Z,1.6
2019-05-13T11:10:46.047Z,1.4
2019-05-13T11:11:46.055Z,1.6
2019-05-13T11:12:46.072Z,1.6
2019-05-13T11:13:54.299Z,1.8
2019-05-13T11:14:51.358Z,1.5
2019-05-13T11:15:47.064Z,1.7
2019-05-13T11:16:47.344Z,1.6
2019-05-13T11:17:47.333Z,1.5
2019-05-13T11:18:47.325Z,1.7
2019-05-13T11:19:47.367Z,1.8
2019-05-13T11:20:46.350Z,1.9
2019-05-13T11:21:50.562Z,1.9
2019-05-13T11:22:47.528Z,1.7
2019-05-13T11:23:47.533Z,1.7
2019-05-13T11:24:47.575Z,1.5
2019-05-13T11:25:47.595Z,1.8
2019-05-13T11:26:47.573Z,1.8
2019-05-13T11:27:47.812Z,1.5
2019-05-13T11:28:47.765Z,1.6
2019-05-13T11:29:47.795Z,1.7
2019-05-13T11:30:47.776Z,1.8
2019-05-13T11:31:47.773Z,2
2019-05-13T11:32:47.913Z,2
2019-05-13T11:33:48.086Z,1.9
2019-05-13T11:34:48.319Z,1.8
2019-05-13T11:35:48.312Z,1.9
2019-05-13T11:36:48.270Z,2.2
2019-05-13T11:37:48.419Z,2.4
2019-05-13T11:38:48.602Z,2.2
2019-05-13T11:39:48.800Z,2.3
2019-05-13T11:40:47.787Z,2.4
2019-05-13T11:41:48.779Z,1.9
2019-05-13T11:42:47.766Z,2.2
2019-05-13T11:44:09.015Z,2.1
2019-05-13T11:44:52.517Z,2.1
2019-05-13T11:45:49.118Z,2
2019-05-13T11:46:48.089Z,2.2
2019-05-13T11:47:51.938Z,2
2019-05-13T11:48:51.854Z,2.2
2019-05-13T11:49:48.431Z,2
2019-05-13T11:50:51.297Z,2
2019-05-13T11:51:51.882Z,2
2019-05-13T11:52:52.148Z,2.1
2019-05-13T11:53:50.527Z,2
2019-05-13T11:54:53.103Z,2.1
2019-05-13T11:55:52.205Z,2.2
2019-05-13T11:56:51.996Z,2
2019-05-13T11:57:52.383Z,2.1
2019-05-13T11:58:49.022Z,2
2019-05-13T11:59:49.034Z,2
2019-05-13T12:00:53.032Z,2
2019-05-13T12:01:53.159Z,1.9
2019-05-13T12:02:53.918Z,2.1
2019-05-13T12:03:52.797Z,2.1
2019-05-13T12:04:53.413Z,2
2019-05-13T12:05:53.679Z,2
2019-05-13T12:06:54.260Z,2
2019-05-13T12:07:53.457Z,2
2019-05-13T12:08:54.705Z,2.3
2019-05-13T12:09:51.793Z,2
2019-05-13T12:10:51.814Z,2.1
2019-05-13T12:11:49.859Z,2.3
2019-05-13T12:12:49.863Z,2.1
2019-05-13T12:13:52.720Z,2
2019-05-13T12:15:20.182Z,2.2
2019-05-13T12:15:53.851Z,2.2
2019-05-13T12:16:50.002Z,2
2019-05-13T12:17:52.296Z,2
2019-05-13T12:18:52.483Z,2.1
2019-05-13T12:19:53.983Z,1.9
2019-05-13T12:20:53.901Z,2.2
2019-05-13T12:21:53.939Z,2
2019-05-13T12:22:51.994Z,2
2019-05-13T12:23:52.647Z,2
2019-05-13T12:24:51.536Z,1.9
2019-05-13T12:25:52.857Z,2.2
2019-05-13T12:26:53.042Z,2.3
2019-05-13T12:27:51.911Z,2.1
2019-05-13T12:28:53.484Z,1.9
2019-05-13T12:29:52.659Z,1.8
2019-05-13T12:30:52.976Z,2
2019-05-13T12:31:52.574Z,2.1
2019-05-13T12:32:51.849Z,2
2019-05-13T12:33:52.179Z,2.2
2019-05-13T12:34:52.570Z,2.4
2019-05-13T12:35:52.859Z,2
2019-05-13T12:36:51.693Z,2
2019-05-13T12:37:53.243Z,2
2019-05-13T12:38:53.456Z,2.1
2019-05-13T12:39:52.979Z,1.8
2019-05-13T12:40:52.748Z,2.2
2019-05-13T12:41:53.711Z,2.2
2019-05-13T12:42:53.826Z,2
2019-05-13T12:43:53.816Z,2
2019-05-13T12:45:01.695Z,1.6
2019-05-13T12:45:53.620Z,1.8
2019-05-13T12:46:54.198Z,1.6
2019-05-13T12:47:52.994Z,1.8
2019-05-13T12:48:52.245Z,1.8
2019-05-13T12:49:52.273Z,1.6
2019-05-13T12:50:53.793Z,1.6
2019-05-13T12:51:59.482Z,1.8
2019-05-13T12:52:53.273Z,1.8
2019-05-13T12:53:52.986Z,1.7
2019-05-13T12:54:53.033Z,1.6
2019-05-13T12:55:55.989Z,1.5
2019-05-13T12:56:53.588Z,1.8
2019-05-13T12:57:52.777Z,1.5
2019-05-13T12:58:52.598Z,2.1
2019-05-13T12:59:52.627Z,2.2
2019-05-13T13:00:53.426Z,1.9
2019-05-13T13:01:52.929Z,2
2019-05-13T13:02:52.779Z,2
2019-05-13T13:03:52.982Z,1.8
2019-05-13T13:05:09.213Z,1.6
2019-05-13T13:05:54.132Z,1.5
2019-05-13T13:06:54.156Z,1.4
2019-05-13T13:08:15.868Z,1.8
2019-05-13T13:08:54.308Z,1.8
2019-05-13T13:10:53.774Z,2.8
2019-05-13T13:11:54.250Z,4.5
2019-05-13T13:12:54.845Z,2.5
2019-05-13T13:13:58.556Z,1.8
2019-05-13T13:14:54.778Z,1.6
2019-05-13T13:15:53.654Z,1.8
2019-05-13T13:16:54.250Z,1.9
2019-05-13T13:17:54.188Z,2
2019-05-13T13:18:53.864Z,1.9
2019-05-13T13:19:56.896Z,1.6
2019-05-13T13:21:00.105Z,1.8
2019-05-13T13:22:02.426Z,1.9
2019-05-13T13:22:55.025Z,1.9
2019-05-13T13:23:54.027Z,1.9
2019-05-13T13:24:57.175Z,1.7
2019-05-13T13:25:57.112Z,1.5
2019-05-13T13:26:54.159Z,2.6
2019-05-13T13:28:10.392Z,1.9
2019-05-13T13:28:56.168Z,1.8
2019-05-13T13:30:02.678Z,1.6
2019-05-13T13:30:55.627Z,2.3
2019-05-13T13:32:55.109Z,1.8
2019-05-13T13:33:55.587Z,1.7
2019-05-13T13:34:55.757Z,1.6
2019-05-13T13:35:59.689Z,1.7
2019-05-13T13:36:56.041Z,1.6
2019-05-13T13:37:55.382Z,2
2019-05-13T13:38:56.024Z,1.5
2019-05-13T13:39:55.463Z,1.7
2019-05-13T13:40:55.400Z,1.6
2019-05-13T13:41:55.418Z,1.6
2019-05-13T13:42:55.537Z,1.8
2019-05-13T13:43:55.564Z,1.8
2019-05-13T13:44:55.580Z,1.8
2019-05-13T13:46:24.769Z,1.7
2019-05-13T13:46:56.716Z,1.6
2019-05-13T13:48:03.051Z,1.8
2019-05-13T13:48:56.981Z,1.6
2019-05-13T13:49:55.964Z,1.5
2019-05-13T13:50:56.355Z,1.7
2019-05-13T13:51:56.142Z,1.8
2019-05-13T13:52:56.150Z,1.7
2019-05-13T13:53:56.778Z,1.6
2019-05-13T13:55:02.801Z,1.4
2019-05-13T13:55:57.262Z,1.5
2019-05-13T13:56:57.426Z,1.9
2019-05-13T13:57:57.419Z,1.8
2019-05-13T13:58:57.450Z,1.8
2019-05-13T14:00:19.683Z,1.6
2019-05-13T14:01:06.819Z,1.7
2019-05-13T14:02:56.737Z,1.4
2019-05-13T14:03:56.853Z,1.7
2019-05-13T14:04:56.839Z,1.6
2019-05-13T14:05:56.884Z,1.4
2019-05-13T14:06:32.572Z,1.4
2019-05-13T14:07:58.045Z,1.7